메인 페이지
METAR-TAF:

METAR-TAF

공항 :

밴쿠버 국제공항

밴쿠버, 브리티시컬럼비아, 캐나다

위도: 49-11N, 경도: 123-10W, 고도: 3m

현재 날씨관측

예보는 48분 전, 13:19시(UTC)에 발표되었습니다.
무풍
온도 5°C
습도 100%
기압 1014 hPa
시정: 24.1km
고도 500ft 상공 구름 조금
고도 900ft 상공 구름 많음
고도 7100ft 상공 흐림

METAR: CYVR 061319Z 00000KT 15SM FEW005 BKN009 OVC071 05/05 A2994 RMK ST2SC4AC2 SLP139

시각: 06:07 (14:07 UTC)

예보

예보는 38분 전, 13:29시(UTC)에 발표되었습니다.
예보 대상 시간: 06일 13시부터 07일 18시까지 (UTC)
여러 방향의 바람 3kt
시정: 10km
고도 800ft 상공 구름 보통
고도 3000ft 상공 구름 많음
고도 6000ft 상공 흐림
일시적
06일 13시부터 06일 18시까지 (UTC)
시정: 10km
고도 800ft 상공 구름 많음
고도 3000ft 상공 흐림
약한소나기
06일 1800시부터 (UTC)
6kt
시정: 10km
고도 1200ft 상공 구름 보통
고도 5000ft 상공 구름 많음
07일 0000시부터 (UTC)
6kt
시정: 10km
고도 2000ft 상공 구름 보통
고도 5000ft 상공 흐림
일시적
07일 00시부터 07일 09시까지 (UTC)
시정: 10km
고도 2000ft 상공 구름 많음
고도 5000ft 상공 흐림
약한소나기
07일 0900시부터 (UTC)
6kt
시정: 9.7km
고도 2000ft 상공 흐림
약한소나기

TAF: CYVR 061329Z 0613/0718 VRB03KT P6SM SCT008 BKN030 OVC060 TEMPO 0613/0618 P6SM -SHRA BKN008 OVC030 FM061800 08006KT P6SM SCT012 BKN050 FM070000 10006KT P6SM SCT020 OVC050 TEMPO 0700/0709 P6SM -SHRA BKN020 OVC050 FM070900 09006KT 6SM -SHRA OVC020 RMK NXT FCST BY 061500Z

4,000개 이상의 공항 관측 자료 및 예보 (METAR 및 TAF 보고).

지도상에서 검색 가능한 기상관측소가 노란 점과 빨간 점으로 표시되어 있습니다.

기상관측소 명을 보려면 표시 위로 마우스를 이동하세요.

날씨 관측과 예보를 보려면 클릭하세요.

지도 변경 : 확대하려면 엑스 표시가 있는 녹색 버튼, 축소하려면 빼기 표시가 있는 녹색 버튼, 다음 페이지의 지도를 보려면 녹색 화살표를 클릭하세요.


METAR-TAF: